Time;durP1;ratioP1;P1;durP2;ratioP2;P2;SDS_P1;SDS_P2;PMS_P1;PMS_P2;Temp;Humidity;BMP_temperature;BMP_pressure;BME280_temperature;BME280_humidity;BME280_pressure;Samples;Min_cycle;Max_cycle;Signal;HPM_P1;HPM_P2
2022/04/05 03:45:31;;;;;;;19.33;14.40;;;;;;;3.83;78.11;99731.16;6476523;27;20475;-87
2022/04/05 03:48:35;;;;;;;20.65;13.93;;;;;;;3.89;78.48;99723.53;6578557;27;34338;-87
2022/04/05 03:51:38;;;;;;;18.75;13.13;;;;;;;3.96;77.28;99712.16;6578255;27;34773;-87
2022/04/05 03:54:41;;;;;;;21.77;13.50;;;;;;;3.97;77.70;99712.97;6579132;27;34048;-87
2022/04/05 03:57:44;;;;;;;24.10;13.70;;;;;;;3.86;78.91;99722.88;6578334;27;35145;-87
2022/04/05 04:00:49;;;;;;;18.48;12.90;;;;;;;3.80;79.51;99717.28;6578387;27;33659;-87
2022/04/05 04:03:53;;;;;;;19.42;12.68;;;;;;;3.69;80.87;99726.34;6578225;27;33499;-86
2022/04/05 04:06:56;;;;;;;19.10;12.98;;;;;;;3.64;79.63;99732.09;6578296;27;33623;-86
2022/04/05 04:10:02;;;;;;;20.37;11.30;;;;;;;3.62;80.44;99727.91;6582168;27;34013;-87
2022/04/05 04:13:05;;;;;;;18.00;11.93;;;;;;;3.64;80.03;99723.28;6597870;27;34338;-87
2022/04/05 04:16:09;;;;;;;17.48;12.10;;;;;;;3.74;78.86;99717.91;6598386;27;34202;-87
2022/04/05 04:19:12;;;;;;;18.12;12.45;;;;;;;3.68;80.52;99722.00;6580463;27;36802;-86
2022/04/05 04:22:15;;;;;;;19.42;11.27;;;;;;;3.71;79.84;99724.34;6579518;27;33849;-87
2022/04/05 04:25:18;;;;;;;20.25;12.40;;;;;;;3.84;78.77;99713.34;6578483;27;33857;-87
2022/04/05 04:28:22;;;;;;;18.58;11.07;;;;;;;3.76;80.53;99722.09;6578358;27;34830;-87
2022/04/05 04:31:25;;;;;;;16.42;11.15;;;;;;;3.79;81.17;99720.97;6578151;27;33789;-88
2022/04/05 04:34:28;;;;;;;22.23;11.95;;;;;;;3.74;80.03;99721.38;6578122;27;34053;-87
2022/04/05 04:37:31;;;;;;;20.30;14.07;;;;;;;3.87;79.60;99727.19;6579321;27;35303;-88
2022/04/05 04:40:35;;;;;;;21.20;13.07;;;;;;;3.83;79.66;99727.63;6579191;27;34911;-87
2022/04/05 04:43:38;;;;;;;18.70;12.45;;;;;;;3.77;79.39;99726.44;6581099;27;33939;-87
2022/04/05 04:46:43;;;;;;;25.60;14.25;;;;;;;3.80;79.44;99717.28;6578494;27;34444;-88
2022/04/05 04:49:46;;;;;;;20.83;13.75;;;;;;;3.81;79.49;99726.97;6578702;27;33783;-88
2022/04/05 04:52:49;;;;;;;20.75;13.45;;;;;;;3.80;80.24;99728.81;6579248;27;34168;-91
2022/04/05 04:55:51;;;;;;;21.98;13.43;;;;;;;3.84;79.81;99739.97;6579134;27;34028;-92
2022/04/05 04:59:08;;;;;;;23.33;14.98;;;;;;;3.87;79.27;99735.19;6579615;27;33908;-88
2022/04/05 05:02:10;;;;;;;22.50;14.60;;;;;;;3.81;79.58;99734.97;6579123;27;35129;-88
2022/04/05 05:05:21;;;;;;;22.98;14.57;;;;;;;3.87;79.94;99729.88;6578800;27;33925;-88
2022/04/05 05:08:24;;;;;;;23.85;14.05;;;;;;;3.85;79.93;99729.16;6578874;27;33947;-88
2022/04/05 05:11:27;;;;;;;22.05;14.32;;;;;;;3.94;79.40;99734.59;6578953;27;33553;-88
2022/04/05 05:14:30;;;;;;;26.35;15.57;;;;;;;4.09;79.47;99744.59;6578698;27;33754;-88
2022/04/05 05:17:33;;;;;;;20.55;14.10;;;;;;;4.05;78.22;99737.03;6579671;27;34513;-88
2022/04/05 05:20:35;;;;;;;23.98;14.45;;;;;;;4.24;77.98;99736.03;6579635;27;34499;-88
2022/04/05 05:23:38;;;;;;;23.85;14.73;;;;;;;4.47;76.87;99731.06;6582597;27;35356;-88
2022/04/05 05:26:41;;;;;;;22.35;14.30;;;;;;;4.56;75.22;99732.78;6578605;27;34128;-88
2022/04/05 05:29:44;;;;;;;21.27;14.68;;;;;;;4.74;74.54;99724.78;6578761;27;34331;-88
2022/04/05 05:32:51;;;;;;;22.98;14.27;;;;;;;5.09;72.81;99722.97;6578509;27;34313;-88
2022/04/05 05:35:54;;;;;;;23.62;14.15;;;;;;;5.25;71.45;99722.22;6576696;27;34522;-88
2022/04/05 05:38:57;;;;;;;19.98;11.77;;;;;;;5.42;71.44;99715.97;6579047;27;33365;-88
2022/04/05 05:42:00;;;;;;;19.20;11.60;;;;;;;5.34;72.04;99707.94;6578556;27;34696;-87
2022/04/05 05:45:03;;;;;;;21.15;11.70;;;;;;;5.30;71.70;99725.28;6573438;27;170775;-87
2022/04/05 05:48:07;;;;;;;24.77;12.88;;;;;;;5.07;72.86;99717.81;6581645;27;33728;-87
2022/04/05 05:51:10;;;;;;;20.33;11.95;;;;;;;5.08;73.16;99722.12;6583413;27;33731;-87
2022/04/05 05:54:13;;;;;;;19.52;12.27;;;;;;;5.10;72.32;99732.66;6580148;27;35450;-87
2022/04/05 05:57:16;;;;;;;19.20;11.45;;;;;;;5.08;73.99;99731.97;6577088;27;33882;-87
2022/04/05 06:00:23;;;;;;;18.60;11.23;;;;;;;5.20;72.95;99742.22;6577792;27;34235;-87
2022/04/05 06:03:26;;;;;;;19.02;11.55;;;;;;;5.28;71.44;99737.94;6578146;27;33764;-87
2022/04/05 06:06:29;;;;;;;18.05;11.23;;;;;;;5.40;72.73;99750.00;6578507;27;33950;-87
2022/04/05 06:09:32;;;;;;;20.23;11.00;;;;;;;5.54;72.65;99751.22;6577424;27;35333;-88
2022/04/05 06:12:43;;;;;;;18.48;11.05;;;;;;;5.83;70.98;99748.16;6578057;27;34110;-88
2022/04/05 06:15:46;;;;;;;23.12;11.77;;;;;;;6.08;69.80;99749.91;6577473;27;34272;-88
2022/04/05 06:18:49;;;;;;;22.62;11.88;;;;;;;6.18;68.27;99752.44;6579115;27;33939;-88
2022/04/05 06:21:52;;;;;;;20.80;11.93;;;;;;;6.41;68.24;99749.94;6576424;27;34738;-88
2022/04/05 06:24:55;;;;;;;21.77;11.02;;;;;;;6.72;68.24;99757.28;6575511;27;33628;-88
2022/04/05 06:28:03;;;;;;;14.20;9.32;;;;;;;6.87;65.07;99747.56;6577697;27;34123;-88
2022/04/05 06:31:06;;;;;;;17.25;9.30;;;;;;;7.02;63.95;99737.88;6578420;27;33917;-89
2022/04/05 06:34:09;;;;;;;15.02;8.80;;;;;;;7.20;63.17;99740.31;6580336;27;33384;-88
2022/04/05 06:37:11;;;;;;;16.35;8.57;;;;;;;7.29;62.92;99734.94;6580220;27;34899;-88
2022/04/05 06:40:15;;;;;;;17.37;9.38;;;;;;;7.67;60.17;99728.75;6579041;27;33609;-88
2022/04/05 06:43:25;;;;;;;16.00;9.02;;;;;;;7.83;60.46;99735.88;6581724;27;33578;-88
2022/04/05 06:46:28;;;;;;;16.92;9.00;;;;;;;8.10;58.44;99736.38;6583203;27;34384;-92
2022/04/05 06:49:31;;;;;;;14.25;9.05;;;;;;;7.87;59.05;99731.84;6580641;27;34264;-92
2022/04/05 06:52:38;;;;;;;15.05;8.73;;;;;;;7.82;60.25;99728.03;6580866;27;33962;-89
2022/04/05 06:55:41;;;;;;;16.40;8.55;;;;;;;8.04;57.88;99723.69;6578006;27;34740;-88
2022/04/05 06:58:44;;;;;;;14.82;8.60;;;;;;;8.05;58.65;99720.00;6582228;27;34210;-88
2022/04/05 07:01:47;;;;;;;17.20;8.50;;;;;;;8.27;58.40;99716.47;6573081;27;34305;-87
2022/04/05 07:04:50;;;;;;;17.62;8.82;;;;;;;8.37;57.59;99721.63;6585132;27;33888;-88
2022/04/05 07:07:52;;;;;;;13.25;8.48;;;;;;;8.34;57.05;99735.41;6598834;27;34073;-88
2022/04/05 07:10:55;;;;;;;15.05;8.80;;;;;;;8.21;57.50;99727.94;6583398;27;34328;-88
2022/04/05 07:13:58;;;;;;;14.73;8.15;;;;;;;8.08;59.70;99731.22;6578272;27;34674;-87
2022/04/05 07:17:01;;;;;;;22.80;9.25;;;;;;;8.28;58.28;99731.56;6578366;27;33472;-87
2022/04/05 07:20:08;;;;;;;16.10;9.25;;;;;;;8.37;59.00;99729.66;6578442;27;34432;-87
2022/04/05 07:23:12;;;;;;;14.93;8.82;;;;;;;8.40;59.05;99718.63;6580248;27;35580;-87
2022/04/05 07:26:15;;;;;;;17.10;9.20;;;;;;;9.00;56.82;99722.25;6579249;27;34006;-87
2022/04/05 07:29:17;;;;;;;15.27;9.15;;;;;;;9.86;56.04;99727.94;6577614;27;33584;-88
2022/04/05 07:32:21;;;;;;;14.95;9.48;;;;;;;10.40;52.44;99716.72;6579323;27;33719;-88
2022/04/05 07:35:24;;;;;;;13.35;8.35;;;;;;;10.67;51.61;99718.63;6577140;27;35257;-88
2022/04/05 07:38:26;;;;;;;15.80;9.60;;;;;;;10.88;49.75;99715.06;6577643;27;34075;-87
2022/04/05 07:41:29;;;;;;;14.43;9.45;;;;;;;10.82;50.22;99709.63;6578409;27;34616;-87
2022/04/05 07:44:33;;;;;;;14.35;8.45;;;;;;;11.04;50.34;99708.53;6577853;27;33923;-87
2022/04/05 07:47:36;;;;;;;8.95;6.25;;;;;;;11.19;49.42;99711.13;6576264;27;35185;-87
2022/04/05 07:50:39;;;;;;;14.52;7.50;;;;;;;11.02;47.29;99721.38;6578874;27;34062;-87
2022/04/05 07:53:46;;;;;;;12.02;7.32;;;;;;;11.01;49.25;99718.87;6578397;27;34328;-87
2022/04/05 07:56:49;;;;;;;10.68;7.15;;;;;;;10.96;47.71;99727.53;6576825;27;34981;-88
2022/04/05 07:59:52;;;;;;;7.68;5.97;;;;;;;11.15;46.98;99717.13;6578050;27;33639;-87
2022/04/05 08:02:55;;;;;;;11.48;6.82;;;;;;;11.03;47.10;99714.97;6578011;27;33488;-87
2022/04/05 08:05:58;;;;;;;9.68;7.22;;;;;;;11.04;48.39;99715.78;6577673;27;34732;-87
2022/04/05 08:09:01;;;;;;;12.70;7.15;;;;;;;11.19;46.80;99708.41;6575575;27;34038;-87
2022/04/05 08:12:04;;;;;;;9.45;6.60;;;;;;;11.09;46.52;99706.09;6575901;27;33666;-87
2022/04/05 08:15:24;;;;;;;12.20;7.47;;;;;;;11.30;47.77;99713.25;6576046;27;34526;-84
2022/04/05 08:18:27;;;;;;;8.90;6.87;;;;;;;11.48;46.33;99711.91;6579816;27;33875;-84
2022/04/05 08:21:31;;;;;;;10.82;7.45;;;;;;;11.68;45.59;99702.03;6579285;27;33867;-87
2022/04/05 08:24:35;;;;;;;9.48;7.30;;;;;;;11.85;45.84;99717.88;6579527;27;34761;-87
2022/04/05 08:27:37;;;;;;;8.57;6.53;;;;;;;11.88;44.50;99714.81;6581038;27;34303;-86
2022/04/05 08:30:40;;;;;;;10.63;7.45;;;;;;;12.17;43.43;99713.63;6579259;27;33845;-87
2022/04/05 08:33:43;;;;;;;8.25;6.18;;;;;;;12.44;43.99;99712.63;6579429;27;34056;-87
2022/04/05 08:36:47;;;;;;;9.27;5.97;;;;;;;12.57;42.80;99706.38;6578467;27;34319;-87
2022/04/05 08:39:50;;;;;;;11.55;6.30;;;;;;;12.35;43.07;99713.03;6582326;27;34710;-87
2022/04/05 08:42:56;;;;;;;9.10;5.75;;;;;;;12.19;42.98;99708.84;6584153;27;34863;-87
2022/04/05 08:46:00;;;;;;;7.03;5.70;;;;;;;12.24;41.81;99700.97;6579150;27;35262;-92
2022/04/05 08:49:05;;;;;;;8.10;6.20;;;;;;;12.20;41.75;99699.72;6577838;27;34782;-92
2022/04/05 08:52:08;;;;;;;7.20;5.85;;;;;;;11.89;43.30;99706.47;6578521;27;33959;-88
2022/04/05 08:55:13;;;;;;;7.78;5.62;;;;;;;11.94;42.05;99711.28;6582255;27;34795;-88
2022/04/05 08:58:16;;;;;;;8.13;5.72;;;;;;;12.07;42.11;99705.91;6580164;27;34185;-87
2022/04/05 09:01:19;;;;;;;12.05;5.53;;;;;;;11.79;41.94;99706.84;6578498;27;33928;-87
2022/04/05 09:04:22;;;;;;;8.85;6.40;;;;;;;12.11;42.09;99695.53;6578467;27;35102;-88
2022/04/05 09:07:30;;;;;;;9.25;5.97;;;;;;;12.39;42.07;99693.50;6586149;27;33938;-88
2022/04/05 09:10:33;;;;;;;8.00;5.95;;;;;;;12.93;40.52;99699.75;6591397;27;34421;-87
2022/04/05 09:13:36;;;;;;;11.07;6.32;;;;;;;12.96;41.54;99695.75;6591899;27;34116;-87
2022/04/05 09:16:39;;;;;;;10.02;5.95;;;;;;;12.99;41.04;99704.31;6578501;27;34042;-87
2022/04/05 09:19:47;;;;;;;7.35;5.82;;;;;;;12.58;41.54;99691.03;6577680;27;33830;-87
2022/04/05 09:22:54;;;;;;;11.95;5.78;;;;;;;12.05;43.35;99697.22;6576623;27;33880;-87
2022/04/05 09:26:00;;;;;;;8.65;5.28;;;;;;;11.65;43.12;99696.22;6577810;27;33780;-87
2022/04/05 09:29:07;;;;;;;10.35;5.80;;;;;;;11.42;43.12;99688.44;6576939;27;33910;-87
2022/04/05 09:32:30;;;;;;;9.90;7.00;;;;;;;11.28;43.28;99685.66;6576887;27;33746;-87
2022/04/05 09:35:43;;;;;;;8.10;6.10;;;;;;;10.97;44.67;99693.34;6578039;27;33921;-87
2022/04/05 09:38:46;;;;;;;9.90;5.93;;;;;;;10.97;44.66;99696.91;6577700;27;34027;-87
2022/04/05 09:42:08;;;;;;;8.82;5.55;;;;;;;11.04;44.81;99697.75;6576995;27;34111;-87
2022/04/05 09:45:12;;;;;;;9.18;6.28;;;;;;;11.27;43.68;99693.97;6577395;27;33523;-87
2022/04/05 09:48:18;;;;;;;8.82;6.30;;;;;;;11.33;44.65;99690.47;6577462;27;33958;-87
2022/04/05 09:51:21;;;;;;;8.50;5.60;;;;;;;11.68;43.78;99685.03;6578112;27;34786;-87
2022/04/05 09:54:30;;;;;;;6.32;5.07;;;;;;;11.98;43.09;99691.78;6577633;27;34913;-87
2022/04/05 09:57:33;;;;;;;8.60;5.15;;;;;;;11.84;44.27;99687.34;6577323;27;35985;-87
2022/04/05 10:00:36;;;;;;;6.35;4.93;;;;;;;12.26;42.87;99688.09;6578230;27;34988;-87
2022/04/05 10:03:41;;;;;;;6.78;5.00;;;;;;;12.46;42.49;99694.34;6579186;27;33973;-88
2022/04/05 10:06:49;;;;;;;8.82;5.60;;;;;;;12.09;43.72;99695.75;6580039;27;34007;-85
2022/04/05 10:09:52;;;;;;;9.90;5.95;;;;;;;12.08;45.50;99695.94;6577983;27;34776;-85
2022/04/05 10:12:56;;;;;;;8.32;6.37;;;;;;;12.09;45.14;99700.31;6577774;27;34455;-85
2022/04/05 10:16:00;;;;;;;9.65;6.32;;;;;;;12.35;44.74;99697.66;6577588;27;33968;-85
2022/04/05 10:19:10;;;;;;;9.32;6.10;;;;;;;12.50;45.46;99697.47;6577913;27;35305;-85
2022/04/05 10:22:16;;;;;;;9.52;6.32;;;;;;;12.58;44.63;99701.84;6579390;27;33739;-88
2022/04/05 10:25:21;;;;;;;6.45;5.75;;;;;;;12.87;44.22;99697.84;6577314;27;34558;-87
2022/04/05 10:28:28;;;;;;;9.60;5.22;;;;;;;12.82;45.24;99698.50;6577447;27;34013;-88
2022/04/05 10:31:36;;;;;;;7.25;5.80;;;;;;;12.86;44.47;99704.31;6576702;27;34824;-87
2022/04/05 10:34:50;;;;;;;10.43;5.82;;;;;;;13.38;44.40;99703.41;6578684;27;34794;-88
2022/04/05 10:38:13;;;;;;;8.38;5.30;;;;;;;13.91;42.34;99691.53;6577402;27;33658;-88
2022/04/05 10:41:22;;;;;;;4.97;4.43;;;;;;;14.01;41.20;99693.75;6577413;27;34771;-87
2022/04/05 10:44:27;;;;;;;6.70;5.00;;;;;;;14.31;38.45;99695.87;6581634;27;35596;-87
2022/04/05 10:47:30;;;;;;;6.50;5.00;;;;;;;14.28;39.33;99700.69;6579632;27;33683;-87
2022/04/05 10:51:02;;;;;;;6.40;4.50;;;;;;;14.26;40.19;99691.94;6581177;27;34034;-87
2022/04/05 10:54:18;;;;;;;6.80;5.43;;;;;;;14.11;40.50;99690.59;6580536;27;34055;-87
2022/04/05 10:57:32;;;;;;;5.37;4.75;;;;;;;14.27;39.37;99684.62;6580142;27;34595;-87
2022/04/05 11:00:35;;;;;;;5.72;4.82;;;;;;;14.38;39.49;99691.25;6579750;27;34128;-92
2022/04/05 11:03:38;;;;;;;7.20;5.20;;;;;;;14.14;41.75;99684.75;6580753;27;34307;-92
2022/04/05 11:07:01;;;;;;;6.57;5.00;;;;;;;14.50;40.01;99687.59;6576591;27;34067;-88
2022/04/05 11:10:04;;;;;;;8.95;4.70;;;;;;;14.82;40.20;99678.63;6574781;27;33862;-88
2022/04/05 11:13:09;;;;;;;5.60;4.82;;;;;;;14.89;40.04;99682.09;6579708;27;33681;-88
2022/04/05 11:16:13;;;;;;;8.00;5.40;;;;;;;14.81;40.36;99690.50;6580538;27;34583;-88
2022/04/05 11:19:17;;;;;;;8.00;5.57;;;;;;;14.79;40.00;99692.59;6579982;27;33610;-86
2022/04/05 11:22:19;;;;;;;8.60;5.12;;;;;;;14.63;40.71;99692.12;6582061;27;34073;-86
2022/04/05 11:25:27;;;;;;;7.70;5.47;;;;;;;14.37;41.96;99678.75;6583405;27;35453;-86
2022/04/05 11:28:45;;;;;;;6.78;4.80;;;;;;;14.82;40.59;99675.91;6579531;27;33896;-86
2022/04/05 11:32:07;;;;;;;4.15;3.80;;;;;;;15.63;38.77;99686.50;6579539;27;33629;-86
2022/04/05 11:35:26;;;;;;;5.65;3.90;;;;;;;15.09;39.21;99681.87;6580406;27;35562;-86
2022/04/05 11:38:34;;;;;;;;;;;;;;;15.15;39.17;99691.81;6579506;27;34074;-86
2022/04/05 11:41:39;;;;;;;3.90;3.58;;;;;;;14.64;40.46;99699.19;6580963;27;33839;-86
2022/04/05 11:44:54;;;;;;;4.25;3.75;;;;;;;14.96;40.33;99701.84;6578889;27;34142;-86
2022/04/05 11:47:57;;;;;;;3.78;3.40;;;;;;;15.96;38.87;99681.72;6579603;27;33301;-86
2022/04/05 11:51:05;;;;;;;5.40;3.70;;;;;;;17.05;36.79;99685.00;6582156;27;34834;-86
2022/04/05 11:54:12;;;;;;;5.03;3.45;;;;;;;16.10;38.93;99689.44;6578283;27;34098;-86
2022/04/05 11:57:15;;;;;;;3.80;3.22;;;;;;;15.49;40.41;99709.41;6584791;27;34487;-87
2022/04/05 12:00:18;;;;;;;4.57;3.53;;;;;;;15.69;40.48;99708.38;6589946;27;35439;-90
2022/04/05 12:03:21;;;;;;;6.22;3.60;;;;;;;15.10;41.64;99702.53;6580546;27;34226;-91
2022/04/05 12:06:32;;;;;;;4.50;3.12;;;;;;;14.94;43.18;99715.59;6578197;27;33965;-91
2022/04/05 12:09:37;;;;;;;4.45;3.35;;;;;;;15.67;41.72;99699.59;6578232;27;34106;-86
2022/04/05 12:12:40;;;;;;;4.25;3.17;;;;;;;15.62;41.69;99697.59;6577980;27;34174;-87
2022/04/05 12:15:43;;;;;;;3.25;3.00;;;;;;;15.32;42.40;99706.47;6577845;27;34730;-87
2022/04/05 12:18:46;;;;;;;3.78;3.33;;;;;;;15.53;41.73;99697.06;6575533;27;33681;-87
2022/04/05 12:21:53;;;;;;;5.55;3.20;;;;;;;15.89;41.19;99697.28;6577468;27;34867;-86
2022/04/05 12:24:57;;;;;;;4.10;3.33;;;;;;;16.08;40.91;99690.72;6578166;27;34672;-86
2022/04/05 12:28:00;;;;;;;3.90;3.35;;;;;;;16.42;40.62;99689.19;6578079;27;34070;-87
2022/04/05 12:31:26;;;;;;;3.80;3.50;;;;;;;15.39;41.72;99684.72;6578744;27;34084;-87
2022/04/05 12:34:30;;;;;;;3.83;3.00;;;;;;;15.98;40.83;99683.13;6578030;27;34025;-87
2022/04/05 12:37:33;;;;;;;3.97;3.00;;;;;;;16.46;39.93;99671.34;6579045;27;34027;-87
2022/04/05 12:40:40;;;;;;;3.95;2.87;;;;;;;16.31;40.31;99668.25;6577881;27;34795;-87
2022/04/05 12:43:43;;;;;;;3.58;3.00;;;;;;;17.94;37.50;99659.38;6580035;27;33937;-87
2022/04/05 12:46:49;;;;;;;2.53;2.33;;;;;;;19.68;34.37;99669.19;6578362;27;34823;-86
2022/04/05 12:49:57;;;;;;;2.90;2.60;;;;;;;20.51;33.19;99662.66;6582799;27;33935;-87
2022/04/05 12:53:07;;;;;;;2.50;2.30;;;;;;;20.36;32.85;99669.62;6580400;27;34149;-87
2022/04/05 12:56:14;;;;;;;2.87;2.00;;;;;;;19.78;32.54;99656.75;6578735;27;34249;-87
2022/04/05 12:59:27;;;;;;;3.90;2.17;;;;;;;19.16;34.37;99658.69;6578858;27;34141;-87
2022/04/05 13:02:35;;;;;;;2.80;2.30;;;;;;;19.01;34.97;99661.16;6578070;27;34148;-87
2022/04/05 13:09:14;;;;;;;3.33;2.55;;;;;;;16.59;38.94;99647.75;6578374;27;33847;-91
2022/04/05 13:12:18;;;;;;;4.30;2.72;;;;;;;16.09;39.94;99648.94;6581461;27;35152;-87
2022/04/05 13:15:21;;;;;;;4.18;2.80;;;;;;;15.55;41.61;99646.09;6582005;27;34292;-87
2022/04/05 13:18:35;;;;;;;3.28;2.90;;;;;;;14.88;43.32;99650.63;6580651;27;34511;-87
2022/04/05 13:21:42;;;;;;;4.45;2.90;;;;;;;15.04;44.70;99657.34;6579077;27;34359;-87
2022/04/05 13:24:46;;;;;;;4.07;3.03;;;;;;;15.00;43.64;99656.94;6581154;27;33527;-87
2022/04/05 13:27:59;;;;;;;7.85;3.40;;;;;;;14.84;43.57;99654.84;6578207;27;34501;-86
2022/04/05 13:31:14;;;;;;;4.05;3.40;;;;;;;14.44;44.47;99657.84;6576799;27;35061;-87
2022/04/05 13:34:23;;;;;;;4.32;3.28;;;;;;;14.39;44.95;99654.97;6577229;27;34325;-86
2022/04/05 13:37:26;;;;;;;4.35;3.17;;;;;;;14.98;44.03;99642.81;6578052;27;34774;-86
2022/04/05 13:40:31;;;;;;;3.40;3.10;;;;;;;17.57;39.00;99648.81;6578212;27;34632;-88
2022/04/05 13:43:35;;;;;;;3.20;2.90;;;;;;;20.69;33.48;99645.03;6578758;27;34440;-87
2022/04/05 13:46:39;;;;;;;3.92;3.10;;;;;;;22.45;29.58;99636.13;6576780;27;35672;-87
2022/04/05 13:49:43;;;;;;;4.78;2.30;;;;;;;23.01;28.85;99640.75;6581985;27;34697;-86
2022/04/05 13:52:46;;;;;;;2.75;2.55;;;;;;;25.50;25.70;99620.81;6576034;27;34594;-86
2022/04/05 13:55:50;;;;;;;2.85;2.65;;;;;;;25.79;24.69;99623.44;6578252;27;34716;-87
2022/04/05 13:58:55;;;;;;;3.42;2.67;;;;;;;25.59;24.58;99620.97;6577202;27;35103;-88
2022/04/05 14:01:58;;;;;;;3.75;2.70;;;;;;;26.00;24.23;99634.22;6577445;27;33771;-87
2022/04/05 14:05:02;;;;;;;2.80;2.60;;;;;;;25.27;25.01;99618.88;6577483;27;34311;-87
2022/04/05 14:08:08;;;;;;;5.65;3.08;;;;;;;26.72;24.44;99630.34;6576888;27;34726;-87
2022/04/05 14:11:12;;;;;;;2.70;2.50;;;;;;;26.71;23.32;99624.00;6578914;27;33728;-87
2022/04/05 14:14:30;;;;;;;2.45;2.25;;;;;;;25.93;23.83;99617.22;6577616;27;34080;-87
2022/04/05 14:17:37;;;;;;;2.50;2.08;;;;;;;26.67;24.14;99614.66;6577565;27;33930;-89
2022/04/05 14:20:39;;;;;;;2.75;2.05;;;;;;;25.75;25.00;99602.28;6580311;27;34393;-89
2022/04/05 14:23:43;;;;;;;3.05;2.45;;;;;;;24.39;25.90;99602.38;6583917;27;34708;-91
2022/04/05 14:26:46;;;;;;;2.75;2.55;;;;;;;23.88;26.94;99596.47;6579792;27;35401;-92
2022/04/05 14:29:49;;;;;;;2.90;2.60;;;;;;;21.92;28.97;99608.91;6565106;27;34482;-93
2022/04/05 14:32:52;;;;;;;3.03;2.50;;;;;;;22.77;28.36;99604.84;6580727;27;33751;-93
2022/04/05 14:35:55;;;;;;;4.65;2.40;;;;;;;22.63;28.55;99610.88;6578929;27;33904;-89
2022/04/05 14:38:58;;;;;;;3.03;2.22;;;;;;;21.81;30.01;99610.00;6577544;27;35575;-88
2022/04/05 14:42:01;;;;;;;2.58;2.20;;;;;;;20.80;31.00;99609.28;6578023;27;34084;-88
2022/04/05 14:45:04;;;;;;;2.87;2.50;;;;;;;20.61;31.62;99606.13;6578109;27;34326;-89
2022/04/05 14:48:25;;;;;;;3.03;2.50;;;;;;;20.16;32.49;99603.84;6579408;27;35322;-89
2022/04/05 14:51:30;;;;;;;2.60;2.40;;;;;;;19.10;34.54;99598.81;6577023;27;34664;-89
2022/04/05 14:54:33;;;;;;;4.90;2.05;;;;;;;17.89;37.30;99600.19;6577836;27;33946;-89
2022/04/05 14:57:35;;;;;;;2.28;2.08;;;;;;;16.80;39.33;99606.41;6577909;27;35153;-88
2022/04/05 15:00:38;;;;;;;2.35;2.15;;;;;;;16.37;41.22;99609.44;6579774;27;33835;-88
2022/04/05 15:03:41;;;;;;;2.08;1.98;;;;;;;16.34;41.47;99616.16;6576950;27;33989;-89
2022/04/05 15:06:44;;;;;;;2.50;2.30;;;;;;;16.06;41.90;99623.09;6577559;27;34696;-88
2022/04/05 15:09:50;;;;;;;3.10;2.20;;;;;;;15.96;41.66;99617.38;6577638;27;33791;-88
2022/04/05 15:12:53;;;;;;;2.37;2.17;;;;;;;15.80;42.76;99618.88;6577865;27;33579;-88
2022/04/05 15:15:56;;;;;;;2.60;2.40;;;;;;;15.86;42.33;99625.28;6578955;27;34323;-88
2022/04/05 15:18:59;;;;;;;2.65;2.42;;;;;;;15.41;43.46;99620.19;6580270;27;34414;-88
2022/04/05 15:22:02;;;;;;;3.00;2.00;;;;;;;14.86;44.97;99621.03;6579015;27;33950;-88
2022/04/05 15:25:10;;;;;;;2.80;2.60;;;;;;;14.84;45.29;99630.44;6578580;27;34654;-88
2022/04/05 15:28:13;;;;;;;2.45;2.25;;;;;;;14.47;46.94;99631.16;6579819;27;34716;-88
2022/04/05 15:31:16;;;;;;;2.60;2.40;;;;;;;14.49;46.19;99637.19;6587000;27;33914;-88
2022/04/05 15:34:19;;;;;;;4.53;2.97;;;;;;;14.59;45.99;99638.59;6589964;27;35422;-88
2022/04/05 15:37:42;;;;;;;2.90;2.70;;;;;;;14.29;46.73;99634.63;6584725;27;34069;-88
2022/04/05 15:40:45;;;;;;;2.60;2.40;;;;;;;13.84;48.54;99640.16;6580398;27;34410;-88
2022/04/05 15:43:49;;;;;;;4.60;2.70;;;;;;;13.73;48.62;99638.16;6579359;27;34529;-88
2022/04/05 15:46:52;;;;;;;4.03;3.62;;;;;;;13.54;49.88;99634.50;6579157;27;33942;-88
2022/04/05 15:50:00;;;;;;;3.33;2.97;;;;;;;13.35;50.20;99638.13;6580490;27;34201;-88
2022/04/05 15:53:05;;;;;;;3.87;2.53;;;;;;;13.17;51.08;99636.06;6586519;27;34831;-88
2022/04/05 15:56:09;;;;;;;3.00;2.45;;;;;;;13.20;51.76;99624.84;6585473;27;34085;-88
